Current Weather

Essex County

Caldwell, New Jersey (KCDW)

Report from: Tuesday, July 16, 2024 11:53 AM EDT
Current time: Tuesday, July 16, 2024 12:24 PM EDT

Nearby weather – Weather history – Daily summaries
Weather forecast

Temperature33.9°C (93.0°F)
Heat index35.9°C (96.7°F)
Dew point19.4°C (66.9°F)
Winds 6 kts (3.1 m/s, 6.9 mph) Vrb
Winds variableWinds variable
Visibility10 mi. (16.1 km)
Clouds Sky clear
Altimeter29.83 in.Hg (1010 mB)
Relative humidity43 %
Density altitude2,544 ft. (775 m)
Sea-level pressure101.1 kPa (1011 mB, 29.84 in.Hg)
Remarks Automated weather observing station with precipitation discriminator
Flight conditions Visual Meteorological Conditions
Raw dataKCDW 161553Z VRB06KT 10SM CLR 34/19 A2983 RMK AO2 SLP106 T03390194
An error has occurred. This application may no longer respond until reloaded. Reload 🗙